createdAt,value
2019-02-07T00:01:01.528Z,-3.03
2019-02-07T00:03:08.429Z,-3.09
2019-02-07T00:05:12.607Z,-3.18
2019-02-07T00:07:18.237Z,-3.25
2019-02-07T00:09:22.235Z,-3.28
2019-02-07T00:11:31.697Z,-3.31
2019-02-07T00:13:35.716Z,-3.34
2019-02-07T00:15:39.766Z,-3.36
2019-02-07T00:17:43.755Z,-3.39
2019-02-07T00:19:47.670Z,-3.41
2019-02-07T00:21:52.557Z,-3.45
2019-02-07T00:24:02.823Z,-3.48
2019-02-07T00:26:09.713Z,-3.50
2019-02-07T00:28:18.527Z,-3.53
2019-02-07T00:30:29.543Z,-3.53
2019-02-07T00:32:34.062Z,-3.55
2019-02-07T00:34:38.433Z,-3.54
2019-02-07T00:36:42.444Z,-3.55
2019-02-07T00:38:47.064Z,-3.57
2019-02-07T00:41:01.603Z,-3.58
2019-02-07T00:43:05.638Z,-3.59
2019-02-07T00:45:11.775Z,-3.62
2019-02-07T00:47:15.762Z,-3.62
2019-02-07T00:49:19.985Z,-3.61
2019-02-07T00:51:23.982Z,-3.60
2019-02-07T00:53:27.941Z,-3.58
2019-02-07T00:55:36.596Z,-3.59
2019-02-07T00:57:41.587Z,-3.56
2019-02-07T00:59:45.596Z,-3.56
2019-02-07T01:01:50.036Z,-3.57
2019-02-07T01:03:53.994Z,-3.60
2019-02-07T01:05:58.002Z,-3.63
2019-02-07T01:08:03.467Z,-3.66
2019-02-07T01:10:09.200Z,-3.69
2019-02-07T01:12:13.743Z,-3.73
2019-02-07T01:14:17.791Z,-3.77
2019-02-07T01:16:21.869Z,-3.81
2019-02-07T01:18:25.892Z,-3.84
2019-02-07T01:20:31.971Z,-3.89
2019-02-07T01:22:35.931Z,-3.90
2019-02-07T01:24:40.066Z,-3.93
2019-02-07T01:26:44.504Z,-3.96
2019-02-07T01:28:48.496Z,-3.96
2019-02-07T01:30:52.597Z,-3.99
2019-02-07T01:33:00.864Z,-4.02
2019-02-07T01:35:05.084Z,-4.02
2019-02-07T01:37:09.024Z,-4.04
2019-02-07T01:39:12.971Z,-4.06
2019-02-07T01:41:16.942Z,-4.09
2019-02-07T01:43:21.012Z,-4.11
2019-02-07T01:45:25.162Z,-4.10
2019-02-07T01:47:30.282Z,-4.11
2019-02-07T01:49:35.324Z,-4.11
2019-02-07T01:51:39.209Z,-4.12
2019-02-07T01:53:46.931Z,-4.15
2019-02-07T01:55:51.195Z,-4.14
2019-02-07T01:57:56.128Z,-4.16
2019-02-07T02:00:00.221Z,-4.17
2019-02-07T02:02:04.115Z,-4.18
2019-02-07T02:04:08.210Z,-4.18
2019-02-07T02:06:12.853Z,-4.20
2019-02-07T02:08:16.867Z,-4.22
2019-02-07T02:10:25.940Z,-4.25
2019-02-07T02:12:29.887Z,-4.26
2019-02-07T02:14:33.827Z,-4.27
2019-02-07T02:16:37.839Z,-4.26
2019-02-07T02:18:41.813Z,-4.25
2019-02-07T02:20:45.719Z,-4.21
2019-02-07T02:22:51.809Z,-4.19
2019-02-07T02:24:55.836Z,-4.18
2019-02-07T02:26:59.897Z,-4.19
2019-02-07T02:29:04.802Z,-4.18
2019-02-07T02:31:08.766Z,-4.18
2019-02-07T02:33:12.850Z,-4.18
2019-02-07T02:35:16.648Z,-4.17
2019-02-07T02:37:20.845Z,-4.15
2019-02-07T02:39:24.806Z,-4.12
2019-02-07T02:41:28.895Z,-4.14
2019-02-07T02:43:32.868Z,-4.14
2019-02-07T02:45:37.969Z,-4.12
2019-02-07T02:47:42.074Z,-4.11
2019-02-07T02:49:49.221Z,-4.08
2019-02-07T02:51:54.318Z,-4.04
2019-02-07T02:54:00.748Z,-4.00
2019-02-07T02:56:06.224Z,-3.94
2019-02-07T02:58:11.613Z,-3.88
2019-02-07T03:00:18.785Z,-3.88
2019-02-07T03:02:37.072Z,-3.85
2019-02-07T03:04:54.256Z,-3.81
2019-02-07T03:07:35.067Z,-3.78
2019-02-07T03:09:56.377Z,-3.79
2019-02-07T03:12:20.279Z,-3.78
2019-02-07T03:14:41.951Z,-3.78
2019-02-07T03:17:03.367Z,-3.81
2019-02-07T03:19:18.295Z,-3.79
2019-02-07T03:21:39.970Z,-3.80
2019-02-07T03:24:18.116Z,-3.81
2019-02-07T03:26:33.070Z,-3.82
2019-02-07T03:28:50.229Z,-3.84
2019-02-07T03:31:11.530Z,-3.87
2019-02-07T03:33:26.366Z,-3.85
2019-02-07T03:35:52.147Z,-3.81
2019-02-07T03:38:13.767Z,-3.80
2019-02-07T03:40:45.834Z,-3.76
2019-02-07T03:43:07.588Z,-3.71
2019-02-07T03:45:36.093Z,-3.67
2019-02-07T03:47:57.754Z,-3.66
2019-02-07T03:50:25.783Z,-3.67
2019-02-07T03:52:51.943Z,-3.68
2019-02-07T03:55:15.559Z,-3.67
2019-02-07T03:57:47.657Z,-3.72
2019-02-07T04:00:16.026Z,-3.74
2019-02-07T04:02:48.043Z,-3.74
2019-02-07T04:05:14.124Z,-3.78
2019-02-07T04:07:27.629Z,-3.77
2019-02-07T04:09:59.221Z,-3.76
2019-02-07T04:12:22.463Z,-3.73
2019-02-07T04:14:44.115Z,-3.72
2019-02-07T04:17:06.254Z,-3.71
2019-02-07T04:19:26.705Z,-3.70
2019-02-07T04:21:58.451Z,-3.68
2019-02-07T04:24:39.517Z,-3.64
2019-02-07T04:27:05.505Z,-3.60
2019-02-07T04:29:37.386Z,-3.61
2019-02-07T04:32:00.409Z,-3.57
2019-02-07T04:34:37.539Z,-3.56
2019-02-07T04:37:09.688Z,-3.52
2019-02-07T04:39:25.722Z,-3.51
2019-02-07T04:41:47.354Z,-3.49
2019-02-07T04:44:19.159Z,-3.48
2019-02-07T04:46:40.603Z,-3.50
2019-02-07T04:48:57.676Z,-3.47
2019-02-07T04:51:19.280Z,-3.45
2019-02-07T04:53:35.370Z,-3.45
2019-02-07T04:56:00.688Z,-3.43
2019-02-07T04:58:22.662Z,-3.43
2019-02-07T05:00:58.495Z,-3.41
2019-02-07T05:03:20.298Z,-3.42
2019-02-07T05:05:47.027Z,-3.43
2019-02-07T05:08:18.880Z,-3.43
2019-02-07T05:10:40.511Z,-3.42
2019-02-07T05:13:02.086Z,-3.40
2019-02-07T05:15:30.676Z,-3.40
2019-02-07T05:18:00.089Z,-3.38
2019-02-07T05:20:26.145Z,-3.39
2019-02-07T05:22:41.640Z,-3.35
2019-02-07T05:25:12.129Z,-3.37
2019-02-07T05:27:37.684Z,-3.36
2019-02-07T05:29:59.049Z,-3.36
2019-02-07T05:32:13.096Z,-3.32
2019-02-07T05:34:37.118Z,-3.29
2019-02-07T05:36:53.116Z,-3.26
2019-02-07T05:39:21.922Z,-3.25
2019-02-07T05:41:40.677Z,-3.22
2019-02-07T05:43:54.208Z,-3.26
2019-02-07T05:46:08.952Z,-3.25
2019-02-07T05:48:45.151Z,-3.23
2019-02-07T05:51:09.723Z,-3.26
2019-02-07T05:53:31.134Z,-3.28
2019-02-07T05:56:12.476Z,-3.29
2019-02-07T05:58:24.605Z,-3.29
2019-02-07T06:00:47.665Z,-3.29
2019-02-07T06:03:16.993Z,-3.28
2019-02-07T06:05:38.625Z,-3.28
2019-02-07T06:08:00.729Z,-3.27
2019-02-07T06:10:43.931Z,-3.20
2019-02-07T06:13:24.948Z,-2.95
2019-02-07T06:15:47.697Z,-2.60
2019-02-07T06:18:22.691Z,-2.44
2019-02-07T06:20:48.487Z,-2.46
2019-02-07T06:23:14.090Z,-2.56
2019-02-07T06:25:35.660Z,-2.63
2019-02-07T06:27:51.041Z,-2.74
2019-02-07T06:30:08.785Z,-2.79
2019-02-07T06:32:21.521Z,-2.85
2019-02-07T06:34:42.740Z,-2.92
2019-02-07T06:37:04.570Z,-2.98
2019-02-07T06:39:28.739Z,-3.01
2019-02-07T06:42:03.701Z,-3.00
2019-02-07T06:44:28.989Z,-2.99
2019-02-07T06:46:52.603Z,-3.02
2019-02-07T06:49:15.387Z,-3.02
2019-02-07T06:51:39.687Z,-3.01
2019-02-07T06:54:01.515Z,-2.99
2019-02-07T06:56:23.153Z,-2.99
2019-02-07T06:58:44.104Z,-3.00
2019-02-07T07:01:13.301Z,-2.98
2019-02-07T07:03:28.076Z,-2.95
2019-02-07T07:05:51.864Z,-2.91
2019-02-07T07:08:17.837Z,-2.89
2019-02-07T07:10:43.807Z,-2.88
2019-02-07T07:13:15.622Z,-2.90
2019-02-07T07:15:47.513Z,-2.90
2019-02-07T07:18:16.395Z,-2.87
2019-02-07T07:20:59.481Z,-2.87
2019-02-07T07:23:16.447Z,-2.84
2019-02-07T07:25:38.030Z,-2.83
2019-02-07T07:28:03.994Z,-2.81
2019-02-07T07:30:33.577Z,-2.78
2019-02-07T07:33:11.231Z,-2.77
2019-02-07T07:35:40.609Z,-2.79
2019-02-07T07:38:02.635Z,-2.82
2019-02-07T07:40:28.685Z,-2.84
2019-02-07T07:42:50.361Z,-2.82
2019-02-07T07:45:15.727Z,-2.82
2019-02-07T07:47:36.047Z,-2.83
2019-02-07T07:49:53.593Z,-2.84
2019-02-07T07:52:21.452Z,-2.83
2019-02-07T07:55:00.421Z,-2.83
2019-02-07T07:57:26.155Z,-2.86
2019-02-07T07:59:49.166Z,-2.81
2019-02-07T08:02:12.234Z,-2.78
2019-02-07T08:04:35.248Z,-2.81
2019-02-07T08:07:02.854Z,-2.81
2019-02-07T08:09:26.567Z,-2.80
2019-02-07T08:11:49.446Z,-2.77
2019-02-07T08:14:10.800Z,-2.71
2019-02-07T08:16:35.971Z,-2.69
2019-02-07T08:19:04.964Z,-2.70
2019-02-07T08:21:33.953Z,-2.70
2019-02-07T08:23:56.406Z,-2.68
2019-02-07T08:26:17.750Z,-2.71
2019-02-07T08:28:42.019Z,-2.73
2019-02-07T08:30:55.290Z,-2.71
2019-02-07T08:33:19.139Z,-2.68
2019-02-07T08:35:41.992Z,-2.68
2019-02-07T08:38:11.378Z,-2.66
2019-02-07T08:40:32.965Z,-2.58
2019-02-07T08:42:58.798Z,-2.52
2019-02-07T08:45:27.445Z,-2.46
2019-02-07T08:47:58.386Z,-2.42
2019-02-07T08:50:16.297Z,-2.38
2019-02-07T08:52:39.310Z,-2.34
2019-02-07T08:55:02.460Z,-2.33
2019-02-07T08:57:26.695Z,-2.28
2019-02-07T08:59:54.187Z,-2.24
2019-02-07T09:02:17.205Z,-2.24
2019-02-07T09:04:34.760Z,-2.23
2019-02-07T09:07:12.871Z,-2.20
2019-02-07T09:09:34.949Z,-2.14
2019-02-07T09:12:12.452Z,-2.06
2019-02-07T09:14:33.274Z,-2.05
2019-02-07T09:16:55.217Z,-2.05
2019-02-07T09:19:20.558Z,-2.03
2019-02-07T09:21:35.616Z,-1.99
2019-02-07T09:24:10.784Z,-1.98
2019-02-07T09:26:39.852Z,-2.02
2019-02-07T09:28:55.004Z,-2.04
2019-02-07T09:31:17.215Z,-2.04
2019-02-07T09:33:38.960Z,-2.03
2019-02-07T09:36:05.352Z,-2.03
2019-02-07T09:38:40.777Z,-1.96
2019-02-07T09:41:03.864Z,-1.87
2019-02-07T09:43:25.584Z,-1.79
2019-02-07T09:45:49.446Z,-1.74
2019-02-07T09:48:21.325Z,-1.69
2019-02-07T09:50:34.686Z,-1.65
2019-02-07T09:52:50.265Z,-1.59
2019-02-07T09:55:27.731Z,-1.53
2019-02-07T09:57:42.175Z,-1.49
2019-02-07T10:00:12.577Z,-1.36
2019-02-07T10:02:22.404Z,-1.27
2019-02-07T10:04:43.653Z,-1.21
2019-02-07T10:07:01.753Z,-1.15
2019-02-07T10:09:36.938Z,-1.11
2019-02-07T10:11:58.785Z,-1.05
2019-02-07T10:14:34.217Z,-0.97
2019-02-07T10:17:06.108Z,-0.94
2019-02-07T10:19:34.861Z,-0.91
2019-02-07T10:22:03.807Z,-0.87
2019-02-07T10:24:25.474Z,-0.91
2019-02-07T10:26:47.009Z,-0.94
2019-02-07T10:29:08.645Z,-0.95
2019-02-07T10:31:30.721Z,-0.95
2019-02-07T10:33:52.202Z,-0.95
2019-02-07T10:36:24.129Z,-0.96
2019-02-07T10:38:45.619Z,-0.92
2019-02-07T10:41:11.543Z,-0.88
2019-02-07T10:43:44.902Z,-0.79
2019-02-07T10:46:12.373Z,-0.73
2019-02-07T10:48:44.602Z,-0.61
2019-02-07T10:51:07.037Z,-0.46
2019-02-07T10:53:32.566Z,-0.37
2019-02-07T10:55:56.587Z,-0.34
2019-02-07T10:58:22.312Z,-0.31
2019-02-07T11:00:45.378Z,-0.33
2019-02-07T11:03:26.489Z,-0.35
2019-02-07T11:05:39.474Z,-0.36
2019-02-07T11:08:02.157Z,-0.37
2019-02-07T11:10:27.779Z,-0.38
2019-02-07T11:12:49.640Z,-0.38
2019-02-07T11:15:21.502Z,-0.32
2019-02-07T11:17:53.820Z,-0.24
2019-02-07T11:20:22.927Z,-0.15
2019-02-07T11:22:36.361Z,-0.14
2019-02-07T11:24:57.807Z,-0.12
2019-02-07T11:27:26.737Z,-0.07
2019-02-07T11:29:48.998Z,-0.04
2019-02-07T11:32:18.238Z,-0.03
2019-02-07T11:34:41.116Z,-0.04
2019-02-07T11:37:03.182Z,-0.07
2019-02-07T11:39:40.699Z,-0.08
2019-02-07T11:42:09.581Z,-0.08
2019-02-07T11:44:20.695Z,-0.06
2019-02-07T11:46:43.823Z,-0.05
2019-02-07T11:49:09.838Z,-0.03
2019-02-07T11:51:32.161Z,-0.01
2019-02-07T11:54:07.556Z,0.00
2019-02-07T11:56:37.878Z,0.04
2019-02-07T11:59:18.803Z,0.04
2019-02-07T12:01:35.051Z,-0.01
2019-02-07T12:04:05.150Z,-0.04
2019-02-07T12:06:26.568Z,-0.06
2019-02-07T12:08:42.815Z,-0.07
2019-02-07T12:11:04.467Z,-0.07
2019-02-07T12:13:18.286Z,-0.05
2019-02-07T12:15:33.738Z,-0.02
2019-02-07T12:18:10.173Z,0.01
2019-02-07T12:20:51.317Z,0.07
2019-02-07T12:23:12.568Z,0.13
2019-02-07T12:25:28.346Z,0.19
2019-02-07T12:27:51.334Z,0.21
2019-02-07T12:30:17.377Z,0.26
2019-02-07T12:32:38.710Z,0.30
2019-02-07T12:34:51.740Z,0.28
2019-02-07T12:37:23.970Z,0.29
2019-02-07T12:39:49.967Z,0.31
2019-02-07T12:42:05.513Z,0.36
2019-02-07T12:44:29.725Z,0.40
2019-02-07T12:47:11.186Z,0.45
2019-02-07T12:49:33.503Z,0.49
2019-02-07T12:52:05.262Z,0.50
2019-02-07T12:54:40.210Z,0.52
2019-02-07T12:57:00.964Z,0.56
2019-02-07T12:59:33.038Z,0.60
2019-02-07T13:01:59.036Z,0.61
2019-02-07T13:04:17.747Z,0.60
2019-02-07T13:06:38.564Z,0.61
2019-02-07T13:08:56.243Z,0.64
2019-02-07T13:11:25.248Z,0.65
2019-02-07T13:13:48.832Z,0.68
2019-02-07T13:16:22.090Z,0.71
2019-02-07T13:18:42.275Z,0.73
2019-02-07T13:21:03.627Z,0.74
2019-02-07T13:23:26.592Z,0.74
2019-02-07T13:25:48.512Z,0.74
2019-02-07T13:28:10.042Z,0.74
2019-02-07T13:30:40.041Z,0.72
2019-02-07T13:32:50.769Z,0.71
2019-02-07T13:35:19.966Z,0.69
2019-02-07T13:37:45.693Z,0.71
2019-02-07T13:40:07.372Z,0.73
2019-02-07T13:42:19.312Z,0.72
2019-02-07T13:44:40.852Z,0.74
2019-02-07T13:47:12.649Z,0.75
2019-02-07T13:49:51.679Z,0.78
2019-02-07T13:52:08.070Z,0.78
2019-02-07T13:54:35.960Z,0.79
2019-02-07T13:57:07.778Z,0.80
2019-02-07T13:59:46.072Z,0.81
2019-02-07T14:02:13.636Z,0.85
2019-02-07T14:04:43.688Z,0.85
2019-02-07T14:07:05.811Z,0.83
2019-02-07T14:09:27.403Z,0.83
2019-02-07T14:11:57.779Z,0.85
2019-02-07T14:14:12.223Z,0.87
2019-02-07T14:16:35.120Z,0.85
2019-02-07T14:19:07.456Z,0.87
2019-02-07T14:21:20.745Z,0.87
2019-02-07T14:23:49.331Z,0.85
2019-02-07T14:26:07.967Z,0.84
2019-02-07T14:28:38.702Z,0.80
2019-02-07T14:31:06.281Z,0.80
2019-02-07T14:33:28.180Z,0.84
2019-02-07T14:35:42.269Z,0.86
2019-02-07T14:38:03.969Z,0.88
2019-02-07T14:40:29.372Z,0.89
2019-02-07T14:42:58.476Z,0.91
2019-02-07T14:45:20.462Z,0.91
2019-02-07T14:47:26.717Z,0.95
2019-02-07T14:49:33.036Z,0.97
2019-02-07T14:51:36.993Z,0.97
2019-02-07T14:53:42.219Z,0.96
2019-02-07T14:55:46.295Z,0.96
2019-02-07T14:57:50.592Z,0.96
2019-02-07T14:59:59.421Z,0.97
2019-02-07T15:02:03.547Z,1.00
2019-02-07T15:04:10.290Z,1.01
2019-02-07T15:06:14.277Z,1.03
2019-02-07T15:08:18.313Z,1.03
2019-02-07T15:10:22.256Z,1.04
2019-02-07T15:12:26.359Z,1.06
2019-02-07T15:14:30.644Z,1.08
2019-02-07T15:16:34.758Z,1.09
2019-02-07T15:18:38.862Z,1.10
2019-02-07T15:20:43.009Z,1.11
2019-02-07T15:22:48.081Z,1.12
2019-02-07T15:24:52.199Z,1.14
2019-02-07T15:26:56.010Z,1.15
2019-02-07T15:29:00.008Z,1.18
2019-02-07T15:31:05.670Z,1.19
2019-02-07T15:33:10.083Z,1.21
2019-02-07T15:35:17.949Z,1.23
2019-02-07T15:37:23.992Z,1.27
2019-02-07T15:39:28.107Z,1.30
2019-02-07T15:41:32.082Z,1.33
2019-02-07T15:43:36.076Z,1.34
2019-02-07T15:45:40.828Z,1.34
2019-02-07T15:47:44.879Z,1.37
2019-02-07T15:49:49.004Z,1.41
2019-02-07T15:51:52.904Z,1.41
2019-02-07T15:53:57.012Z,1.43
2019-02-07T15:56:01.500Z,1.46
2019-02-07T15:58:05.613Z,1.47
2019-02-07T16:00:29.763Z,1.48
2019-02-07T16:02:40.401Z,1.50
2019-02-07T16:04:46.171Z,1.51
2019-02-07T16:06:50.171Z,1.53
2019-02-07T16:08:54.279Z,1.55
2019-02-07T16:10:59.388Z,1.57
2019-02-07T16:13:03.463Z,1.59
2019-02-07T16:15:11.020Z,1.62
2019-02-07T16:17:15.437Z,1.65
2019-02-07T16:19:19.607Z,1.72
2019-02-07T16:21:23.627Z,1.74
2019-02-07T16:23:31.003Z,1.73
2019-02-07T16:25:35.022Z,1.71
2019-02-07T16:27:39.049Z,1.71
2019-02-07T16:29:43.143Z,1.71
2019-02-07T16:31:47.160Z,1.70
2019-02-07T16:33:51.356Z,1.71
2019-02-07T16:35:55.497Z,1.71
2019-02-07T16:37:59.684Z,1.73
2019-02-07T16:40:05.904Z,1.75
2019-02-07T16:42:10.038Z,1.75
2019-02-07T16:44:14.147Z,1.75
2019-02-07T16:46:18.150Z,1.76
2019-02-07T16:48:22.196Z,1.76
2019-02-07T16:50:26.315Z,1.77
2019-02-07T16:52:30.572Z,1.78
2019-02-07T16:54:34.570Z,1.79
2019-02-07T16:56:39.601Z,1.80
2019-02-07T16:58:43.787Z,1.81
2019-02-07T17:00:48.808Z,1.80
2019-02-07T17:02:53.080Z,1.80
2019-02-07T17:04:57.791Z,1.81
2019-02-07T17:07:02.111Z,1.81
2019-02-07T17:09:16.136Z,1.82
2019-02-07T17:11:20.215Z,1.84
2019-02-07T17:13:24.251Z,1.85
2019-02-07T17:15:28.404Z,1.86
2019-02-07T17:17:32.653Z,1.88
2019-02-07T17:19:36.710Z,1.89
2019-02-07T17:21:40.702Z,1.91
2019-02-07T17:23:45.280Z,1.92
2019-02-07T17:25:49.552Z,1.92
2019-02-07T17:27:56.416Z,1.95
2019-02-07T17:30:00.414Z,1.98
2019-02-07T17:32:04.894Z,1.98
2019-02-07T17:34:09.127Z,2.00
2019-02-07T17:36:13.228Z,2.01
2019-02-07T17:38:17.495Z,2.04
2019-02-07T17:40:21.919Z,2.08
2019-02-07T17:42:27.111Z,2.09
2019-02-07T17:44:31.625Z,2.13
2019-02-07T17:46:35.820Z,2.17
2019-02-07T17:48:40.043Z,2.20
2019-02-07T17:50:44.409Z,2.23
2019-02-07T17:52:50.427Z,2.24
2019-02-07T17:54:54.643Z,2.26
2019-02-07T17:56:58.801Z,2.28
2019-02-07T17:59:03.171Z,2.31
2019-02-07T18:01:09.733Z,2.33
2019-02-07T18:03:13.877Z,2.37
2019-02-07T18:05:17.974Z,2.38
2019-02-07T18:07:22.217Z,2.37
2019-02-07T18:09:26.586Z,2.37
2019-02-07T18:11:31.453Z,2.36
2019-02-07T18:13:35.600Z,2.36
2019-02-07T18:15:39.881Z,2.36
2019-02-07T18:17:44.143Z,2.35
2019-02-07T18:19:48.505Z,2.33
2019-02-07T18:21:53.879Z,2.35
2019-02-07T18:23:58.165Z,2.35
2019-02-07T18:26:02.228Z,2.36
2019-02-07T18:28:06.326Z,2.38
2019-02-07T18:30:17.876Z,2.40
2019-02-07T18:32:21.986Z,2.40
2019-02-07T18:34:26.393Z,2.42
2019-02-07T18:36:33.441Z,2.43
2019-02-07T18:38:37.500Z,2.43
2019-02-07T18:40:41.584Z,2.45
2019-02-07T18:42:45.629Z,2.47
2019-02-07T18:44:49.803Z,2.50
2019-02-07T18:46:53.921Z,2.53
2019-02-07T18:48:59.100Z,2.56
2019-02-07T18:51:03.237Z,2.58
2019-02-07T18:53:08.409Z,2.62
2019-02-07T18:55:12.871Z,2.66
2019-02-07T18:57:16.972Z,2.71
2019-02-07T18:59:21.280Z,2.74
2019-02-07T19:01:25.394Z,2.77
2019-02-07T19:03:29.527Z,2.79
2019-02-07T19:05:36.997Z,2.82
2019-02-07T19:07:41.321Z,2.83
2019-02-07T19:09:46.373Z,2.85
2019-02-07T19:11:54.120Z,2.86
2019-02-07T19:14:00.882Z,2.85
2019-02-07T19:16:14.907Z,2.85
2019-02-07T19:18:19.570Z,2.83
2019-02-07T19:20:24.060Z,2.82
2019-02-07T19:22:28.690Z,2.83
2019-02-07T19:24:33.115Z,2.83
2019-02-07T19:26:38.843Z,2.82
2019-02-07T19:28:43.619Z,2.84
2019-02-07T19:30:47.813Z,2.84
2019-02-07T19:32:51.952Z,2.85
2019-02-07T19:35:06.367Z,2.86
2019-02-07T19:37:10.513Z,2.89
2019-02-07T19:39:14.678Z,2.90
2019-02-07T19:41:18.740Z,2.89
2019-02-07T19:43:22.854Z,2.91
2019-02-07T19:45:26.850Z,2.92
2019-02-07T19:47:30.915Z,2.94
2019-02-07T19:49:35.387Z,2.94
2019-02-07T19:51:39.545Z,2.93
2019-02-07T19:53:43.593Z,2.93
2019-02-07T19:55:47.824Z,2.93
2019-02-07T19:57:52.768Z,2.89
2019-02-07T19:59:57.053Z,2.86
2019-02-07T20:02:01.274Z,2.84
2019-02-07T20:04:05.390Z,2.81
2019-02-07T20:06:09.726Z,2.78
2019-02-07T20:08:14.053Z,2.75
2019-02-07T20:10:19.780Z,2.73
2019-02-07T20:12:23.840Z,2.71
2019-02-07T20:14:27.859Z,2.70
2019-02-07T20:16:31.787Z,2.70
2019-02-07T20:18:36.028Z,2.69
2019-02-07T20:20:40.291Z,2.69
2019-02-07T20:22:44.475Z,2.68
2019-02-07T20:24:48.535Z,2.68
2019-02-07T20:26:55.549Z,2.66
2019-02-07T20:28:59.562Z,2.66
2019-02-07T20:31:04.138Z,2.67
2019-02-07T20:33:12.454Z,2.69
2019-02-07T20:35:16.851Z,2.70
2019-02-07T20:37:21.640Z,2.71
2019-02-07T20:39:27.100Z,2.72
2019-02-07T20:41:32.015Z,2.69
2019-02-07T20:43:36.661Z,2.66
2019-02-07T20:45:40.712Z,2.65
2019-02-07T20:47:45.045Z,2.65
2019-02-07T20:49:49.208Z,2.64
2019-02-07T20:51:53.457Z,2.60
2019-02-07T20:53:57.634Z,2.55
2019-02-07T20:56:01.752Z,2.51
2019-02-07T20:58:05.865Z,2.48
2019-02-07T21:00:17.338Z,2.39
2019-02-07T21:02:21.675Z,2.33
2019-02-07T21:04:26.135Z,2.32
2019-02-07T21:06:30.345Z,2.30
2019-02-07T21:08:34.513Z,2.29
2019-02-07T21:10:38.784Z,2.32
2019-02-07T21:12:43.157Z,2.35
2019-02-07T21:14:47.498Z,2.38
2019-02-07T21:16:51.902Z,2.41
2019-02-07T21:18:56.351Z,2.43
2019-02-07T21:21:18.876Z,2.47
2019-02-07T21:23:29.921Z,2.49
2019-02-07T21:25:43.386Z,2.50
2019-02-07T21:27:48.047Z,2.52
2019-02-07T21:29:52.323Z,2.52
2019-02-07T21:31:56.948Z,2.53
2019-02-07T21:34:01.227Z,2.54
2019-02-07T21:36:06.301Z,2.56
2019-02-07T21:38:10.759Z,2.56
2019-02-07T21:40:21.227Z,2.58
2019-02-07T21:42:25.565Z,2.60
2019-02-07T21:44:29.790Z,2.61
2019-02-07T21:46:33.912Z,2.62
2019-02-07T21:48:38.383Z,2.63
2019-02-07T21:50:45.273Z,2.62
2019-02-07T21:52:51.676Z,2.59
2019-02-07T21:54:55.769Z,2.59
2019-02-07T21:56:59.874Z,2.58
2019-02-07T21:59:04.076Z,2.56
2019-02-07T22:01:08.176Z,2.53
2019-02-07T22:03:13.642Z,2.52
2019-02-07T22:05:17.715Z,2.49
2019-02-07T22:07:21.778Z,2.45
2019-02-07T22:09:26.044Z,2.43
2019-02-07T22:11:30.231Z,2.41
2019-02-07T22:13:34.722Z,2.40
2019-02-07T22:15:38.674Z,2.38
2019-02-07T22:17:42.737Z,2.37
2019-02-07T22:19:46.823Z,2.36
2019-02-07T22:21:51.046Z,2.36
2019-02-07T22:23:55.446Z,2.35
2019-02-07T22:25:59.458Z,2.34
2019-02-07T22:28:06.059Z,2.35
2019-02-07T22:30:13.587Z,2.36
2019-02-07T22:32:18.071Z,2.37
2019-02-07T22:34:22.150Z,2.36
2019-02-07T22:36:27.256Z,2.33
2019-02-07T22:38:31.844Z,2.35
2019-02-07T22:40:35.831Z,2.32
2019-02-07T22:42:47.542Z,2.31
2019-02-07T22:44:48.570Z,2.29
2019-02-07T22:46:52.697Z,2.28
2019-02-07T22:48:57.085Z,2.28
2019-02-07T22:51:01.221Z,2.28
2019-02-07T22:53:05.552Z,2.28
2019-02-07T22:55:09.746Z,2.28
2019-02-07T22:57:14.852Z,2.26
2019-02-07T22:59:18.896Z,2.27
2019-02-07T23:01:37.326Z,2.25
2019-02-07T23:03:43.609Z,2.21
2019-02-07T23:05:48.907Z,2.21
2019-02-07T23:07:53.292Z,2.20
2019-02-07T23:09:57.633Z,2.18
2019-02-07T23:12:01.809Z,2.17
2019-02-07T23:14:08.053Z,2.16
2019-02-07T23:16:12.048Z,2.11
2019-02-07T23:18:19.357Z,2.09
2019-02-07T23:20:23.415Z,2.08
2019-02-07T23:22:29.055Z,2.06
2019-02-07T23:24:33.135Z,2.05
2019-02-07T23:26:37.451Z,2.05
2019-02-07T23:28:42.018Z,2.05
2019-02-07T23:30:48.971Z,2.05
2019-02-07T23:32:52.946Z,2.06
2019-02-07T23:34:57.601Z,2.05
2019-02-07T23:37:01.754Z,2.08
2019-02-07T23:39:11.805Z,2.09
2019-02-07T23:41:16.258Z,2.09
2019-02-07T23:43:20.228Z,2.13
2019-02-07T23:45:24.629Z,2.14
2019-02-07T23:47:28.662Z,2.17
2019-02-07T23:49:33.169Z,2.18
2019-02-07T23:51:37.133Z,2.20
2019-02-07T23:53:41.165Z,2.23
2019-02-07T23:55:45.250Z,2.26
2019-02-07T23:57:49.348Z,2.27
2019-02-07T23:59:53.543Z,2.28
